Date,TemperatureHighF,TemperatureAvgF,TemperatureLowF,DewpointHighF,DewpointAvgF,DewpointLowF,HumidityHigh,HumidityAvg,HumidityLow,PressureMaxIn,PressureMinIn,WindSpeedMaxMPH,WindSpeedAvgMPH,GustSpeedMaxMPH,PrecipitationSumIn
2013-5-1,86,68,43,60,52,40,90,58,36,30.47,30.13,12,5,20,0.02
2013-5-2,43,37,33,41,37,32,99,97,90,30.67,30.47,16,7,25,0.56
2013-5-3,40,37,33,36,34,33,99,91,78,30.60,30.20,11,6,20,0.47
2013-5-4,50,42,33,45,39,33,99,90,72,30.32,30.13,9,4,14,0.17
2013-5-5,60,51,45,51,48,45,99,92,72,30.41,30.30,9,4,14,0.01
2013-5-6,72,58,51,56,52,50,98,83,54,30.40,30.31,6,3,10,0.00
2013-5-7,82,64,48,59,50,41,99,66,24,30.38,30.26,5,1,8,0.00
2013-5-8,79,66,58,61,56,51,95,72,47,30.31,30.19,9,3,13,0.07
2013-5-9,79,66,59,63,59,55,99,82,45,30.24,30.14,8,2,14,0.11
2013-5-10,70,59,51,58,52,46,99,81,42,30.34,30.20,7,3,12,0.01
2013-5-11,70,58,46,51,33,14,98,50,12,30.54,30.34,19,5,23,0.00
2013-5-12,72,55,36,41,27,12,84,42,10,30.57,30.42,6,2,8,0.00
2013-5-13,83,65,48,57,47,41,83,55,29,30.46,30.24,7,3,12,0.00
2013-5-14,96,80,67,57,47,29,70,37,10,30.24,30.08,11,5,21,0.00
2013-5-15,92,77,68,68,60,53,84,56,33,30.19,30.10,6,4,14,0.00
2013-5-16,84,72,60,65,62,59,99,74,44,30.19,30.08,6,2,11,0.00
2013-5-17,80,69,60,64,62,60,99,79,54,30.24,30.15,5,2,7,0.00
2013-5-18,88,75,63,73,67,61,96,77,52,30.23,30.02,8,4,13,0.00
2013-5-19,85,71,62,73,65,60,99,82,59,30.14,29.87,14,4,22,0.77
2013-5-20,84,70,62,69,64,60,97,83,53,30.05,29.90,8,3,11,0.01
2013-5-21,80,68,57,64,53,48,88,60,35,30.08,29.97,8,3,13,0.00
2013-5-22,70,63,55,53,51,49,85,67,53,30.25,30.03,8,3,11,0.00
2013-5-23,71,61,52,56,52,49,91,73,55,30.51,30.25,8,3,14,0.00
2013-5-24,75,63,50,56,50,46,99,66,37,30.60,30.42,11,4,16,0.00
2013-5-25,87,73,62,66,59,47,82,62,46,30.46,30.29,6,3,12,0.00
2013-5-26,88,77,68,70,68,65,93,73,53,30.35,30.17,7,3,15,0.00
2013-5-27,83,72,62,72,66,62,99,82,64,30.24,29.96,13,5,17,2.04
2013-5-28,80,75,72,75,70,67,95,82,73,30.11,29.94,6,3,13,0.05
2013-5-29,83,75,66,69,66,62,93,74,59,30.12,29.93,9,5,17,0.07
2013-5-30,77,65,62,66,64,62,99,94,66,30.05,29.91,8,3,12,1.32
2013-5-31,83,70,59,69,65,58,99,85,57,30.05,29.96,8,2,11,1.00